createdAt,value
2019-02-19T00:01:37.774Z,94.30
2019-02-19T00:04:08.929Z,92.87
2019-02-19T00:06:39.923Z,101.53
2019-02-19T00:09:11.066Z,100.40
2019-02-19T00:11:42.205Z,101.53
2019-02-19T00:14:14.165Z,101.30
2019-02-19T00:16:45.045Z,96.57
2019-02-19T00:19:15.993Z,93.83
2019-02-19T00:21:46.864Z,92.57
2019-02-19T00:24:18.021Z,94.60
2019-02-19T00:26:49.032Z,91.33
2019-02-19T00:29:20.087Z,85.63
2019-02-19T00:31:51.043Z,91.00
2019-02-19T00:34:22.103Z,92.13
2019-02-19T00:36:53.087Z,92.70
2019-02-19T00:39:24.096Z,97.27
2019-02-19T00:41:54.976Z,90.87
2019-02-19T00:44:25.940Z,90.57
2019-02-19T00:46:56.864Z,91.80
2019-02-19T00:49:27.908Z,86.03
2019-02-19T00:51:58.927Z,81.87
2019-02-19T00:54:29.958Z,91.07
2019-02-19T00:57:00.984Z,82.90
2019-02-19T00:59:32.149Z,89.07
2019-02-19T01:02:03.010Z,91.30
2019-02-19T01:04:34.034Z,102.40
2019-02-19T01:07:05.136Z,146.27
2019-02-19T01:09:36.188Z,160.83
2019-02-19T01:12:07.242Z,109.23
2019-02-19T01:14:38.223Z,94.97
2019-02-19T01:17:09.116Z,110.37
2019-02-19T01:19:40.058Z,99.33
2019-02-19T01:22:11.104Z,90.67
2019-02-19T01:24:42.133Z,94.60
2019-02-19T01:27:13.034Z,91.70
2019-02-19T01:29:43.964Z,88.33
2019-02-19T01:32:14.852Z,84.03
2019-02-19T01:34:45.836Z,80.73
2019-02-19T01:37:17.906Z,86.80
2019-02-19T01:39:48.955Z,84.33
2019-02-19T01:42:20.073Z,87.53
2019-02-19T01:44:51.122Z,94.30
2019-02-19T01:47:22.008Z,87.63
2019-02-19T01:49:52.955Z,86.80
2019-02-19T01:52:23.929Z,79.17
2019-02-19T01:54:54.957Z,87.20
2019-02-19T01:57:25.894Z,85.00
2019-02-19T01:59:56.923Z,85.97
2019-02-19T02:02:27.992Z,85.80
2019-02-19T02:04:59.045Z,88.47
2019-02-19T02:07:30.014Z,81.73
2019-02-19T02:10:01.073Z,85.47
2019-02-19T02:12:33.247Z,85.07
2019-02-19T02:15:04.570Z,90.80
2019-02-19T02:17:35.423Z,83.57
2019-02-19T02:20:06.421Z,87.53
2019-02-19T02:22:37.381Z,79.90
2019-02-19T02:25:08.528Z,77.13
2019-02-19T02:27:39.503Z,83.67
2019-02-19T02:30:10.802Z,90.10
2019-02-19T02:32:41.724Z,81.70
2019-02-19T02:35:12.714Z,79.33
2019-02-19T02:37:43.606Z,79.13
2019-02-19T02:40:14.603Z,88.07
2019-02-19T02:42:45.485Z,90.27
2019-02-19T02:45:16.539Z,75.20
2019-02-19T02:47:47.633Z,70.37
2019-02-19T02:50:18.658Z,89.70
2019-02-19T02:52:49.650Z,80.63
2019-02-19T02:55:20.644Z,85.37
2019-02-19T02:57:51.562Z,84.97
2019-02-19T03:00:22.515Z,82.23
2019-02-19T03:02:53.436Z,79.70
2019-02-19T03:05:25.396Z,81.73
2019-02-19T03:07:59.128Z,80.33
2019-02-19T03:10:30.217Z,87.03
2019-02-19T03:13:01.097Z,83.57
2019-02-19T03:15:33.048Z,82.17
2019-02-19T03:18:03.966Z,79.77
2019-02-19T03:20:34.916Z,79.33
2019-02-19T03:23:05.889Z,79.60
2019-02-19T03:25:36.815Z,73.77
2019-02-19T03:28:08.032Z,70.07
2019-02-19T03:30:39.058Z,71.20
2019-02-19T03:33:10.027Z,71.17
2019-02-19T03:35:41.055Z,75.37
2019-02-19T03:38:11.926Z,80.80
2019-02-19T03:40:42.892Z,84.20
2019-02-19T03:43:13.744Z,81.67
2019-02-19T03:45:44.729Z,72.10
2019-02-19T03:48:15.787Z,74.90
2019-02-19T03:50:46.705Z,73.07
2019-02-19T03:53:18.043Z,74.50
2019-02-19T03:55:49.312Z,68.87
2019-02-19T03:58:20.567Z,71.17
2019-02-19T04:00:51.574Z,72.00
2019-02-19T04:03:22.668Z,74.03
2019-02-19T04:05:53.877Z,74.90
2019-02-19T04:08:24.913Z,72.30
2019-02-19T04:10:56.021Z,69.40
2019-02-19T04:13:27.005Z,66.07
2019-02-19T04:15:59.127Z,69.40
2019-02-19T04:18:30.336Z,65.07
2019-02-19T04:21:01.397Z,68.63
2019-02-19T04:23:32.330Z,69.90
2019-02-19T04:26:03.525Z,65.83
2019-02-19T04:28:34.440Z,64.23
2019-02-19T04:31:05.450Z,63.70
2019-02-19T04:33:36.626Z,73.10
2019-02-19T04:36:07.658Z,68.97
2019-02-19T04:38:38.759Z,65.50
2019-02-19T04:41:10.396Z,66.43
2019-02-19T04:43:42.001Z,62.13
2019-02-19T04:46:13.165Z,65.40
2019-02-19T04:48:44.039Z,70.90
2019-02-19T04:51:16.674Z,69.07
2019-02-19T04:53:47.680Z,67.53
2019-02-19T04:56:18.924Z,68.83
2019-02-19T04:58:49.820Z,69.50
2019-02-19T05:01:20.777Z,80.60
2019-02-19T05:03:51.737Z,68.83
2019-02-19T05:06:23.401Z,65.83
2019-02-19T05:08:54.481Z,66.80
2019-02-19T05:11:26.271Z,65.77
2019-02-19T05:13:57.424Z,68.53
2019-02-19T05:16:29.965Z,66.57
2019-02-19T05:19:00.914Z,63.50
2019-02-19T05:21:32.118Z,84.83
2019-02-19T05:24:12.418Z,87.50
2019-02-19T05:26:51.240Z,78.13
2019-02-19T05:29:22.280Z,71.27
2019-02-19T05:31:53.320Z,70.33
2019-02-19T05:34:24.316Z,70.87
2019-02-19T05:36:56.074Z,73.43
2019-02-19T05:39:27.051Z,72.40
2019-02-19T05:41:58.244Z,67.90
2019-02-19T05:44:29.488Z,72.87
2019-02-19T05:47:00.556Z,75.13
2019-02-19T05:49:31.660Z,76.53
2019-02-19T05:52:02.739Z,77.73
2019-02-19T05:54:33.829Z,68.00
2019-02-19T05:57:05.253Z,69.07
2019-02-19T05:59:36.795Z,69.90
2019-02-19T06:02:08.047Z,69.17
2019-02-19T06:04:41.983Z,66.72
2019-02-19T06:07:19.577Z,65.20
2019-02-19T06:10:06.360Z,71.17
2019-02-19T06:12:40.719Z,67.27
2019-02-19T06:15:13.917Z,63.63
2019-02-19T06:17:45.942Z,66.67
2019-02-19T06:20:17.294Z,67.40
2019-02-19T06:22:48.632Z,60.03
2019-02-19T06:25:19.686Z,63.27
2019-02-19T06:27:50.712Z,56.20
2019-02-19T06:30:21.704Z,58.10
2019-02-19T06:32:52.833Z,62.63
2019-02-19T06:35:24.221Z,62.53
2019-02-19T06:37:55.474Z,59.77
2019-02-19T06:40:29.561Z,56.63
2019-02-19T06:43:01.108Z,58.40
2019-02-19T06:45:32.606Z,56.03
2019-02-19T06:48:03.864Z,56.37
2019-02-19T06:50:35.047Z,58.53
2019-02-19T06:53:06.223Z,57.77
2019-02-19T06:55:37.572Z,56.00
2019-02-19T06:58:08.713Z,56.83
2019-02-19T07:00:39.853Z,57.50
2019-02-19T07:03:17.102Z,57.03
2019-02-19T07:05:48.172Z,59.17
2019-02-19T07:08:19.336Z,61.53
2019-02-19T07:10:50.322Z,57.37
2019-02-19T07:13:21.562Z,59.83
2019-02-19T07:15:52.833Z,54.87
2019-02-19T07:18:24.869Z,57.43
2019-02-19T07:20:56.985Z,54.70
2019-02-19T07:23:29.702Z,51.60
2019-02-19T07:26:01.296Z,53.63
2019-02-19T07:28:33.099Z,53.37
2019-02-19T07:31:04.663Z,59.57
2019-02-19T07:33:36.500Z,58.77
2019-02-19T07:36:08.255Z,52.60
2019-02-19T07:38:39.857Z,56.33
2019-02-19T07:41:11.542Z,56.07
2019-02-19T07:43:43.135Z,61.77
2019-02-19T07:46:14.855Z,53.03
2019-02-19T07:48:47.277Z,60.90
2019-02-19T07:51:18.975Z,57.93
2019-02-19T07:53:50.046Z,51.03
2019-02-19T07:56:21.646Z,54.47
2019-02-19T07:58:53.327Z,48.77
2019-02-19T08:01:24.848Z,54.33
2019-02-19T08:03:56.485Z,52.43
2019-02-19T08:06:27.533Z,53.93
2019-02-19T08:08:59.090Z,56.37
2019-02-19T08:11:30.759Z,53.27
2019-02-19T08:14:01.829Z,53.77
2019-02-19T08:16:35.945Z,52.87
2019-02-19T08:19:08.091Z,60.60
2019-02-19T08:21:39.744Z,56.20
2019-02-19T08:24:11.670Z,41.27
2019-02-19T08:26:43.090Z,54.17
2019-02-19T08:29:14.944Z,50.13
2019-02-19T08:31:46.028Z,48.67
2019-02-19T08:34:17.021Z,49.03
2019-02-19T08:36:48.009Z,46.03
2019-02-19T08:39:19.675Z,47.57
2019-02-19T08:41:51.323Z,48.00
2019-02-19T08:44:22.840Z,44.47
2019-02-19T08:46:56.849Z,42.13
2019-02-19T08:49:28.562Z,42.70
2019-02-19T08:52:00.674Z,44.00
2019-02-19T08:54:32.937Z,38.90
2019-02-19T08:57:05.345Z,38.57
2019-02-19T08:59:37.388Z,34.00
2019-02-19T09:02:09.009Z,32.87
2019-02-19T09:04:40.718Z,41.57
2019-02-19T09:07:12.326Z,37.70
2019-02-19T09:09:44.369Z,40.00
2019-02-19T09:12:16.226Z,41.73
2019-02-19T09:14:49.365Z,38.77
2019-02-19T09:17:21.082Z,41.80
2019-02-19T09:19:52.939Z,38.43
2019-02-19T09:22:25.949Z,37.13
2019-02-19T09:24:57.706Z,32.73
2019-02-19T09:27:29.419Z,36.87
2019-02-19T09:30:01.167Z,39.13
2019-02-19T09:32:34.370Z,37.73
2019-02-19T09:35:06.618Z,38.57
2019-02-19T09:37:37.717Z,39.33
2019-02-19T09:40:09.162Z,39.13
2019-02-19T09:42:40.345Z,37.53
2019-02-19T09:45:12.015Z,33.03
2019-02-19T09:47:43.794Z,37.43
2019-02-19T09:50:15.891Z,35.93
2019-02-19T09:52:48.009Z,33.10
2019-02-19T09:55:19.800Z,35.43
2019-02-19T09:57:52.389Z,38.13
2019-02-19T10:00:24.159Z,29.77
2019-02-19T10:02:55.681Z,36.77
2019-02-19T10:05:27.568Z,39.43
2019-02-19T10:07:59.387Z,35.40
2019-02-19T10:10:31.167Z,36.63
2019-02-19T10:13:02.807Z,34.73
2019-02-19T10:15:34.676Z,35.77
2019-02-19T10:18:10.217Z,35.30
2019-02-19T10:20:39.814Z,36.27
2019-02-19T10:23:20.008Z,35.20
2019-02-19T10:26:10.087Z,33.50
2019-02-19T10:28:54.369Z,36.73
2019-02-19T10:31:26.168Z,27.67
2019-02-19T10:33:57.848Z,33.17
2019-02-19T10:36:29.806Z,31.60
2019-02-19T10:39:01.928Z,36.67
2019-02-19T10:41:35.165Z,35.47
2019-02-19T10:44:06.849Z,34.47
2019-02-19T10:46:39.911Z,34.67
2019-02-19T10:49:12.384Z,34.93
2019-02-19T10:51:45.640Z,28.93
2019-02-19T10:54:17.321Z,33.30
2019-02-19T10:56:49.043Z,31.80
2019-02-19T10:59:20.805Z,33.50
2019-02-19T11:01:54.129Z,30.40
2019-02-19T11:04:26.814Z,35.07
2019-02-19T11:06:58.729Z,33.03
2019-02-19T11:09:32.837Z,33.03
2019-02-19T11:12:04.859Z,34.93
2019-02-19T11:14:36.030Z,32.40
2019-02-19T11:17:10.008Z,32.53
2019-02-19T11:19:41.847Z,32.27
2019-02-19T11:22:14.017Z,32.40
2019-02-19T11:24:45.457Z,31.27
2019-02-19T11:27:19.001Z,32.77
2019-02-19T11:29:50.177Z,34.30
2019-02-19T11:32:21.376Z,30.43
2019-02-19T11:34:52.447Z,31.40
2019-02-19T11:37:23.805Z,32.70
2019-02-19T11:39:54.870Z,30.63
2019-02-19T11:42:40.535Z,31.37
2019-02-19T11:45:32.063Z,28.37
2019-02-19T11:51:03.274Z,28.80
2019-02-19T11:53:34.189Z,31.23
2019-02-19T11:56:05.096Z,29.13
2019-02-19T11:58:35.972Z,29.43
2019-02-19T12:01:07.492Z,28.40
2019-02-19T12:03:38.174Z,24.93
2019-02-19T12:06:09.162Z,25.27
2019-02-19T12:08:39.976Z,23.87
2019-02-19T12:11:16.647Z,26.47
2019-02-19T12:13:47.428Z,25.27
2019-02-19T12:16:18.274Z,26.83
2019-02-19T12:18:49.155Z,24.77
2019-02-19T12:21:20.278Z,24.93
2019-02-19T12:23:51.188Z,23.90
2019-02-19T12:26:22.090Z,25.30
2019-02-19T12:28:52.918Z,25.07
2019-02-19T12:31:23.748Z,24.43
2019-02-19T12:33:54.593Z,26.03
2019-02-19T12:36:25.496Z,27.03
2019-02-19T12:38:56.479Z,28.47
2019-02-19T12:41:27.308Z,30.43
2019-02-19T12:43:58.074Z,29.90
2019-02-19T12:46:28.946Z,32.03
2019-02-19T12:48:59.738Z,31.67
2019-02-19T12:51:30.634Z,31.50
2019-02-19T12:54:01.560Z,24.33
2019-02-19T12:56:32.334Z,27.33
2019-02-19T12:59:04.146Z,28.37
2019-02-19T13:01:35.049Z,29.03
2019-02-19T13:04:05.840Z,35.40
2019-02-19T13:06:36.672Z,30.53
2019-02-19T13:09:08.017Z,32.20
2019-02-19T13:11:39.681Z,30.97
2019-02-19T13:14:11.484Z,33.87
2019-02-19T13:16:42.345Z,29.53
2019-02-19T13:19:13.349Z,27.07
2019-02-19T13:21:44.389Z,29.70
2019-02-19T13:24:15.204Z,27.57
2019-02-19T13:26:46.061Z,28.10
2019-02-19T13:29:16.920Z,25.07
2019-02-19T13:31:48.714Z,23.73
2019-02-19T13:34:19.563Z,23.77
2019-02-19T13:36:50.370Z,17.13
2019-02-19T13:39:21.135Z,18.13
2019-02-19T13:41:52.238Z,15.30
2019-02-19T13:44:22.980Z,16.30
2019-02-19T13:46:53.884Z,14.30
2019-02-19T13:49:24.663Z,13.53
2019-02-19T13:51:58.640Z,13.07
2019-02-19T13:54:39.458Z,13.77
2019-02-19T13:57:10.389Z,14.67
2019-02-19T13:59:44.043Z,14.47
2019-02-19T14:02:14.924Z,13.60
2019-02-19T14:04:55.742Z,12.50
2019-02-19T14:07:27.120Z,10.43
2019-02-19T14:09:58.243Z,8.80
2019-02-19T14:12:29.079Z,10.37
2019-02-19T14:15:11.629Z,10.77
2019-02-19T14:17:42.411Z,11.87
2019-02-19T14:20:38.034Z,9.83
2019-02-19T14:23:40.374Z,10.63
2019-02-19T14:26:34.026Z,11.37
2019-02-19T14:29:31.615Z,11.10
2019-02-19T14:32:26.227Z,11.07
2019-02-19T14:35:20.008Z,10.43
2019-02-19T14:38:08.602Z,9.67
2019-02-19T14:41:10.400Z,10.80
2019-02-19T14:44:12.227Z,11.60
2019-02-19T14:47:00.817Z,9.90
2019-02-19T14:49:49.123Z,10.53
2019-02-19T14:52:47.858Z,10.93
2019-02-19T14:55:29.894Z,11.03
2019-02-19T14:58:11.587Z,13.43
2019-02-19T15:01:04.956Z,12.77
2019-02-19T15:03:54.638Z,14.53
2019-02-19T15:06:43.134Z,14.60
2019-02-19T15:14:57.643Z,14.57
2019-02-19T15:17:47.705Z,13.67
2019-02-19T15:20:22.531Z,14.37
2019-02-19T15:23:25.175Z,13.47
2019-02-19T15:26:29.633Z,14.20
2019-02-19T15:29:17.937Z,14.27
2019-02-19T15:32:06.581Z,14.87
2019-02-19T15:34:46.911Z,12.83
2019-02-19T15:37:39.604Z,15.40
2019-02-19T15:40:27.670Z,17.00
2019-02-19T15:43:23.425Z,15.97
2019-02-19T15:46:14.864Z,15.37
2019-02-19T15:49:28.660Z,16.17
2019-02-19T15:52:29.863Z,17.80
2019-02-19T15:58:38.301Z,17.23
2019-02-19T16:01:36.972Z,19.17
2019-02-19T16:04:29.456Z,22.03
2019-02-19T16:07:27.406Z,22.00
2019-02-19T16:10:04.923Z,17.50
2019-02-19T16:12:46.665Z,18.13
2019-02-19T16:15:48.338Z,21.80
2019-02-19T16:18:38.115Z,17.70
2019-02-19T16:21:28.875Z,18.53
2019-02-19T16:24:21.165Z,18.97
2019-02-19T16:27:01.292Z,17.83
2019-02-19T16:29:39.693Z,19.43
2019-02-19T16:32:24.500Z,17.93
2019-02-19T16:35:30.099Z,19.87
2019-02-19T16:38:23.766Z,19.30
2019-02-19T16:44:48.408Z,18.03
2019-02-19T16:48:16.068Z,18.43
2019-02-19T16:50:59.555Z,18.33
2019-02-19T16:53:51.891Z,18.53
2019-02-19T16:56:37.138Z,21.53
2019-02-19T16:59:29.272Z,18.10
2019-02-19T17:02:14.056Z,17.97
2019-02-19T17:05:06.746Z,15.90
2019-02-19T17:07:59.575Z,15.70
2019-02-19T17:10:49.398Z,17.90
2019-02-19T17:13:28.998Z,19.20
2019-02-19T17:16:27.257Z,18.37
2019-02-19T17:19:14.333Z,17.33
2019-02-19T17:21:54.142Z,19.27
2019-02-19T17:24:45.401Z,17.77
2019-02-19T17:27:50.539Z,17.37
2019-02-19T17:30:40.217Z,17.07
2019-02-19T17:33:32.783Z,17.20
2019-02-19T17:36:21.210Z,16.63
2019-02-19T17:39:09.059Z,17.93
2019-02-19T17:41:48.907Z,16.70
2019-02-19T17:44:30.117Z,16.37
2019-02-19T17:47:35.270Z,18.03
2019-02-19T17:50:27.164Z,16.77
2019-02-19T17:53:23.347Z,18.87
2019-02-19T17:56:19.353Z,17.50
2019-02-19T17:58:58.397Z,17.13
2019-02-19T18:01:40.238Z,16.87
2019-02-19T18:04:39.370Z,16.67
2019-02-19T18:07:32.213Z,18.87
2019-02-19T18:10:17.969Z,17.73
2019-02-19T18:13:06.791Z,15.03
2019-02-19T18:15:45.510Z,19.03
2019-02-19T18:18:35.092Z,21.73
2019-02-19T18:21:06.457Z,22.23
2019-02-19T18:23:37.725Z,11.87
2019-02-19T18:26:08.942Z,20.53
2019-02-19T18:28:40.373Z,18.93
2019-02-19T18:31:12.467Z,17.53
2019-02-19T18:33:43.547Z,21.67
2019-02-19T18:36:14.797Z,20.97
2019-02-19T18:38:45.937Z,19.13
2019-02-19T18:41:17.031Z,23.13
2019-02-19T18:43:51.483Z,22.07
2019-02-19T18:46:22.634Z,24.63
2019-02-19T18:48:54.050Z,24.23
2019-02-19T18:51:25.084Z,25.77
2019-02-19T18:53:56.376Z,25.63
2019-02-19T18:56:27.586Z,21.90
2019-02-19T18:58:58.645Z,21.70
2019-02-19T19:01:29.719Z,23.67
2019-02-19T19:04:01.609Z,23.60
2019-02-19T19:06:32.734Z,22.13
2019-02-19T19:09:05.909Z,20.00
2019-02-19T19:11:37.583Z,16.70
2019-02-19T19:14:09.002Z,18.37
2019-02-19T19:16:40.378Z,15.97
2019-02-19T19:19:11.596Z,34.57
2019-02-19T19:21:43.995Z,14.43
2019-02-19T19:24:15.436Z,14.30
2019-02-19T19:26:46.658Z,15.07
2019-02-19T19:29:17.966Z,13.60
2019-02-19T19:31:49.243Z,15.97
2019-02-19T19:34:20.416Z,17.07
2019-02-19T19:36:52.005Z,15.43
2019-02-19T19:39:25.010Z,14.10
2019-02-19T19:41:56.654Z,16.37
2019-02-19T19:44:27.996Z,15.23
2019-02-19T19:46:59.282Z,10.20
2019-02-19T19:49:31.668Z,14.17
2019-02-19T19:52:03.027Z,12.37
2019-02-19T19:54:34.203Z,12.33
2019-02-19T19:57:05.307Z,12.07
2019-02-19T19:59:38.840Z,13.67
2019-02-19T20:02:10.204Z,9.53
2019-02-19T20:04:41.790Z,10.40
2019-02-19T20:07:13.183Z,9.80
2019-02-19T20:09:44.372Z,11.40
2019-02-19T20:12:15.531Z,11.33
2019-02-19T20:14:47.126Z,10.87
2019-02-19T20:17:18.276Z,12.40
2019-02-19T20:19:49.333Z,12.17
2019-02-19T20:22:20.448Z,11.57
2019-02-19T20:24:51.565Z,11.20
2019-02-19T20:27:22.540Z,8.37
2019-02-19T20:29:54.174Z,10.37
2019-02-19T20:32:25.391Z,9.50
2019-02-19T20:34:57.035Z,10.43
2019-02-19T20:37:28.296Z,10.27
2019-02-19T20:40:00.276Z,10.40
2019-02-19T20:42:31.372Z,11.40
2019-02-19T20:45:02.629Z,6.97
2019-02-19T20:47:35.394Z,11.17
2019-02-19T20:50:07.082Z,11.37
2019-02-19T20:52:38.383Z,13.80
2019-02-19T20:55:10.158Z,12.23
2019-02-19T20:57:41.327Z,10.80
2019-02-19T21:00:15.119Z,10.60
2019-02-19T21:02:47.846Z,10.47
2019-02-19T21:05:19.124Z,11.20
2019-02-19T21:07:50.594Z,13.53
2019-02-19T21:10:22.147Z,11.57
2019-02-19T21:12:53.307Z,13.17
2019-02-19T21:15:24.878Z,12.47
2019-02-19T21:17:56.228Z,11.87
2019-02-19T21:20:27.658Z,11.13
2019-02-19T21:22:59.331Z,12.87
2019-02-19T21:25:31.369Z,11.00
2019-02-19T21:28:03.669Z,8.83
2019-02-19T21:30:35.097Z,11.40
2019-02-19T21:33:06.509Z,11.07
2019-02-19T21:35:38.048Z,10.80
2019-02-19T21:38:09.485Z,8.73
2019-02-19T21:40:40.978Z,13.10
2019-02-19T21:43:12.388Z,11.77
2019-02-19T21:45:44.007Z,8.80
2019-02-19T21:48:15.537Z,9.73
2019-02-19T21:50:46.913Z,9.60
2019-02-19T21:53:18.106Z,9.30
2019-02-19T21:55:49.638Z,9.67
2019-02-19T21:58:20.813Z,10.10
2019-02-19T22:00:51.856Z,9.90
2019-02-19T22:03:24.498Z,10.47
2019-02-19T22:05:55.898Z,8.63
2019-02-19T22:08:27.178Z,9.63
2019-02-19T22:10:58.521Z,8.30
2019-02-19T22:13:29.671Z,8.77
2019-02-19T22:16:00.999Z,6.30
2019-02-19T22:18:33.789Z,6.10
2019-02-19T22:21:14.447Z,5.30
2019-02-19T22:23:45.756Z,5.93
2019-02-19T22:26:17.244Z,7.20
2019-02-19T22:28:48.453Z,5.80
2019-02-19T22:31:20.016Z,6.40
2019-02-19T22:33:51.160Z,6.20
2019-02-19T22:36:22.471Z,5.73
2019-02-19T22:38:53.649Z,5.73
2019-02-19T22:41:27.035Z,6.03
2019-02-19T22:43:58.153Z,5.57
2019-02-19T22:46:29.467Z,5.60
2019-02-19T22:49:00.617Z,5.97
2019-02-19T22:51:31.896Z,6.00
2019-02-19T22:54:20.389Z,5.33
2019-02-19T22:56:51.529Z,5.00
2019-02-19T22:59:22.788Z,5.83
2019-02-19T23:02:00.135Z,5.57
2019-02-19T23:04:32.062Z,4.63
2019-02-19T23:07:02.985Z,4.97
2019-02-19T23:09:36.768Z,5.73
2019-02-19T23:12:08.066Z,4.73
2019-02-19T23:14:41.031Z,4.90
2019-02-19T23:17:12.283Z,5.03
2019-02-19T23:19:44.077Z,4.43
2019-02-19T23:22:21.459Z,4.97
2019-02-19T23:24:50.762Z,4.67
2019-02-19T23:27:21.964Z,4.57
2019-02-19T23:29:53.082Z,5.27
2019-02-19T23:32:24.395Z,4.93
2019-02-19T23:35:14.217Z,4.23
2019-02-19T23:37:45.325Z,5.60
2019-02-19T23:40:16.837Z,4.73
2019-02-19T23:42:47.932Z,4.03
2019-02-19T23:45:19.420Z,4.13
2019-02-19T23:47:50.166Z,4.10
2019-02-19T23:50:21.176Z,4.13
2019-02-19T23:52:52.459Z,4.40
2019-02-19T23:55:24.284Z,4.07
2019-02-19T23:57:55.316Z,4.10
